sensor_id;sensor_type;location;lat;lon;timestamp;temperature;humidity
13346;DHT22;6742;48.036;15.780;2023-08-06T00:02:10;15.50;99.90
13346;DHT22;6742;48.036;15.780;2023-08-06T00:04:37;15.50;99.90
13346;DHT22;6742;48.036;15.780;2023-08-06T00:07:05;15.40;99.90
13346;DHT22;6742;48.036;15.780;2023-08-06T00:09:32;15.40;99.90
13346;DHT22;6742;48.036;15.780;2023-08-06T00:11:59;15.40;99.90
13346;DHT22;6742;48.036;15.780;2023-08-06T00:14:25;15.50;99.90
13346;DHT22;6742;48.036;15.780;2023-08-06T00:16:54;15.50;99.90
13346;DHT22;6742;48.036;15.780;2023-08-06T00:19:21;15.40;99.90
13346;DHT22;6742;48.036;15.780;2023-08-06T00:21:48;15.50;99.90
13346;DHT22;6742;48.036;15.780;2023-08-06T00:24:15;15.50;99.90
13346;DHT22;6742;48.036;15.780;2023-08-06T00:26:42;15.50;99.90
13346;DHT22;6742;48.036;15.780;2023-08-06T00:29:09;15.40;99.90
13346;DHT22;6742;48.036;15.780;2023-08-06T00:31:36;15.30;99.90
13346;DHT22;6742;48.036;15.780;2023-08-06T00:34:05;15.30;99.90
13346;DHT22;6742;48.036;15.780;2023-08-06T00:36:31;15.30;99.90
13346;DHT22;6742;48.036;15.780;2023-08-06T00:38:58;15.20;99.90
13346;DHT22;6742;48.036;15.780;2023-08-06T00:41:25;15.30;99.90
13346;DHT22;6742;48.036;15.780;2023-08-06T00:43:52;15.20;99.90
13346;DHT22;6742;48.036;15.780;2023-08-06T00:46:18;15.30;99.90
13346;DHT22;6742;48.036;15.780;2023-08-06T00:48:46;15.30;99.90
13346;DHT22;6742;48.036;15.780;2023-08-06T00:51:15;15.30;99.90
13346;DHT22;6742;48.036;15.780;2023-08-06T00:53:43;15.20;99.90
13346;DHT22;6742;48.036;15.780;2023-08-06T00:56:10;15.10;99.90
13346;DHT22;6742;48.036;15.780;2023-08-06T00:58:37;15.10;99.90
13346;DHT22;6742;48.036;15.780;2023-08-06T01:01:04;15.10;99.90
13346;DHT22;6742;48.036;15.780;2023-08-06T01:03:32;15.00;99.90
13346;DHT22;6742;48.036;15.780;2023-08-06T01:05:59;15.00;99.90
13346;DHT22;6742;48.036;15.780;2023-08-06T01:08:36;15.00;99.90
13346;DHT22;6742;48.036;15.780;2023-08-06T01:11:17;15.10;99.90
13346;DHT22;6742;48.036;15.780;2023-08-06T01:13:50;15.10;99.90
13346;DHT22;6742;48.036;15.780;2023-08-06T01:16:21;15.10;99.90
13346;DHT22;6742;48.036;15.780;2023-08-06T01:18:50;15.10;99.90
13346;DHT22;6742;48.036;15.780;2023-08-06T01:21:19;15.10;99.90
13346;DHT22;6742;48.036;15.780;2023-08-06T01:23:47;15.10;99.90
13346;DHT22;6742;48.036;15.780;2023-08-06T01:26:21;15.00;99.90
13346;DHT22;6742;48.036;15.780;2023-08-06T01:28:56;15.10;99.90
13346;DHT22;6742;48.036;15.780;2023-08-06T01:31:28;15.00;99.90
13346;DHT22;6742;48.036;15.780;2023-08-06T01:33:57;15.00;99.90
13346;DHT22;6742;48.036;15.780;2023-08-06T01:36:26;15.10;99.90
13346;DHT22;6742;48.036;15.780;2023-08-06T01:38:54;15.00;99.90
13346;DHT22;6742;48.036;15.780;2023-08-06T01:41:23;15.00;99.90
13346;DHT22;6742;48.036;15.780;2023-08-06T01:43:50;14.90;99.90
13346;DHT22;6742;48.036;15.780;2023-08-06T01:46:17;14.90;99.90
13346;DHT22;6742;48.036;15.780;2023-08-06T01:48:44;14.80;99.90
13346;DHT22;6742;48.036;15.780;2023-08-06T01:51:11;14.80;99.90
13346;DHT22;6742;48.036;15.780;2023-08-06T01:53:39;14.90;99.90
13346;DHT22;6742;48.036;15.780;2023-08-06T01:56:06;14.80;99.90
13346;DHT22;6742;48.036;15.780;2023-08-06T01:58:33;14.80;99.90
13346;DHT22;6742;48.036;15.780;2023-08-06T02:01:03;14.80;99.90
13346;DHT22;6742;48.036;15.780;2023-08-06T02:03:30;14.80;99.90
13346;DHT22;6742;48.036;15.780;2023-08-06T02:05:57;14.80;99.90
13346;DHT22;6742;48.036;15.780;2023-08-06T02:08:24;14.70;99.90
13346;DHT22;6742;48.036;15.780;2023-08-06T02:10:52;14.80;99.90
13346;DHT22;6742;48.036;15.780;2023-08-06T02:13:19;14.70;99.90
13346;DHT22;6742;48.036;15.780;2023-08-06T02:15:46;14.80;99.90
13346;DHT22;6742;48.036;15.780;2023-08-06T02:18:14;14.80;99.90
13346;DHT22;6742;48.036;15.780;2023-08-06T02:20:41;14.90;99.90
13346;DHT22;6742;48.036;15.780;2023-08-06T02:23:08;14.90;99.90
13346;DHT22;6742;48.036;15.780;2023-08-06T02:25:35;14.90;99.90
13346;DHT22;6742;48.036;15.780;2023-08-06T02:28:04;14.90;99.90
13346;DHT22;6742;48.036;15.780;2023-08-06T02:30:31;15.00;99.90
13346;DHT22;6742;48.036;15.780;2023-08-06T02:32:57;15.00;99.90
13346;DHT22;6742;48.036;15.780;2023-08-06T02:35:24;15.00;99.90
13346;DHT22;6742;48.036;15.780;2023-08-06T02:37:51;15.00;99.90
13346;DHT22;6742;48.036;15.780;2023-08-06T02:40:18;15.00;99.90
13346;DHT22;6742;48.036;15.780;2023-08-06T02:42:45;15.00;99.90
13346;DHT22;6742;48.036;15.780;2023-08-06T02:45:14;15.00;99.90
13346;DHT22;6742;48.036;15.780;2023-08-06T02:47:41;15.00;99.90
13346;DHT22;6742;48.036;15.780;2023-08-06T02:50:08;14.90;99.90
13346;DHT22;6742;48.036;15.780;2023-08-06T02:52:35;14.80;99.90
13346;DHT22;6742;48.036;15.780;2023-08-06T02:55:05;14.80;99.90
13346;DHT22;6742;48.036;15.780;2023-08-06T02:57:32;14.70;99.90
13346;DHT22;6742;48.036;15.780;2023-08-06T02:59:59;14.70;99.90
13346;DHT22;6742;48.036;15.780;2023-08-06T03:02:27;14.80;99.90
13346;DHT22;6742;48.036;15.780;2023-08-06T03:04:54;14.80;99.90
13346;DHT22;6742;48.036;15.780;2023-08-06T03:07:21;14.80;99.90
13346;DHT22;6742;48.036;15.780;2023-08-06T03:09:48;14.80;99.90
13346;DHT22;6742;48.036;15.780;2023-08-06T03:12:15;14.80;99.90
13346;DHT22;6742;48.036;15.780;2023-08-06T03:14:42;14.80;99.90
13346;DHT22;6742;48.036;15.780;2023-08-06T03:17:09;14.80;99.90
13346;DHT22;6742;48.036;15.780;2023-08-06T03:19:38;14.90;99.90
13346;DHT22;6742;48.036;15.780;2023-08-06T03:22:05;14.90;99.90
13346;DHT22;6742;48.036;15.780;2023-08-06T03:24:32;14.90;99.90
13346;DHT22;6742;48.036;15.780;2023-08-06T03:26:59;14.90;99.90
13346;DHT22;6742;48.036;15.780;2023-08-06T03:29:26;15.00;99.90
13346;DHT22;6742;48.036;15.780;2023-08-06T03:31:53;15.00;99.90
13346;DHT22;6742;48.036;15.780;2023-08-06T03:34:20;15.00;99.90
13346;DHT22;6742;48.036;15.780;2023-08-06T03:36:48;15.10;99.90
13346;DHT22;6742;48.036;15.780;2023-08-06T03:39:15;15.00;99.90
13346;DHT22;6742;48.036;15.780;2023-08-06T03:41:42;15.00;99.90
13346;DHT22;6742;48.036;15.780;2023-08-06T03:44:09;15.00;99.90
13346;DHT22;6742;48.036;15.780;2023-08-06T03:46:36;14.90;99.90
13346;DHT22;6742;48.036;15.780;2023-08-06T03:49:03;14.90;99.90
13346;DHT22;6742;48.036;15.780;2023-08-06T03:51:30;14.90;99.90
13346;DHT22;6742;48.036;15.780;2023-08-06T03:53:58;14.90;99.90
13346;DHT22;6742;48.036;15.780;2023-08-06T03:56:25;14.90;99.90
13346;DHT22;6742;48.036;15.780;2023-08-06T03:58:53;14.90;99.90
13346;DHT22;6742;48.036;15.780;2023-08-06T04:01:20;14.90;99.90
13346;DHT22;6742;48.036;15.780;2023-08-06T04:03:47;14.90;99.90
13346;DHT22;6742;48.036;15.780;2023-08-06T04:06:14;14.80;99.90
13346;DHT22;6742;48.036;15.780;2023-08-06T04:08:41;14.80;99.90
13346;DHT22;6742;48.036;15.780;2023-08-06T04:11:09;14.70;99.90
13346;DHT22;6742;48.036;15.780;2023-08-06T04:13:36;14.70;99.90
13346;DHT22;6742;48.036;15.780;2023-08-06T04:16:03;14.80;99.90
13346;DHT22;6742;48.036;15.780;2023-08-06T04:18:31;14.80;99.90
13346;DHT22;6742;48.036;15.780;2023-08-06T04:20:58;14.80;99.90
13346;DHT22;6742;48.036;15.780;2023-08-06T04:23:25;14.90;99.90
13346;DHT22;6742;48.036;15.780;2023-08-06T04:25:52;14.80;99.90
13346;DHT22;6742;48.036;15.780;2023-08-06T04:28:20;14.70;99.90
13346;DHT22;6742;48.036;15.780;2023-08-06T04:30:47;14.70;99.90
13346;DHT22;6742;48.036;15.780;2023-08-06T04:33:14;14.70;99.90
13346;DHT22;6742;48.036;15.780;2023-08-06T04:35:41;14.80;99.90
13346;DHT22;6742;48.036;15.780;2023-08-06T04:38:08;14.80;99.90
13346;DHT22;6742;48.036;15.780;2023-08-06T04:40:35;14.80;99.90
13346;DHT22;6742;48.036;15.780;2023-08-06T04:43:02;14.80;99.90
13346;DHT22;6742;48.036;15.780;2023-08-06T04:45:30;14.80;99.90
13346;DHT22;6742;48.036;15.780;2023-08-06T04:47:57;14.80;99.90
13346;DHT22;6742;48.036;15.780;2023-08-06T04:50:24;14.80;99.90
13346;DHT22;6742;48.036;15.780;2023-08-06T04:52:51;14.80;99.90
13346;DHT22;6742;48.036;15.780;2023-08-06T04:55:18;14.70;99.90
13346;DHT22;6742;48.036;15.780;2023-08-06T04:57:45;14.70;99.90
13346;DHT22;6742;48.036;15.780;2023-08-06T05:00:12;14.70;99.90
13346;DHT22;6742;48.036;15.780;2023-08-06T05:02:41;14.80;99.90
13346;DHT22;6742;48.036;15.780;2023-08-06T05:05:08;14.80;99.90
13346;DHT22;6742;48.036;15.780;2023-08-06T05:07:35;14.90;99.90
13346;DHT22;6742;48.036;15.780;2023-08-06T05:10:02;14.80;99.90
13346;DHT22;6742;48.036;15.780;2023-08-06T05:12:30;14.80;99.90
13346;DHT22;6742;48.036;15.780;2023-08-06T05:14:57;14.80;99.90
13346;DHT22;6742;48.036;15.780;2023-08-06T05:17:24;14.80;99.90
13346;DHT22;6742;48.036;15.780;2023-08-06T05:19:52;14.80;99.90
13346;DHT22;6742;48.036;15.780;2023-08-06T05:22:19;14.80;99.90
13346;DHT22;6742;48.036;15.780;2023-08-06T05:24:46;14.80;99.90
13346;DHT22;6742;48.036;15.780;2023-08-06T05:27:13;14.80;99.90
13346;DHT22;6742;48.036;15.780;2023-08-06T05:29:40;14.90;99.90
13346;DHT22;6742;48.036;15.780;2023-08-06T05:32:07;14.90;99.90
13346;DHT22;6742;48.036;15.780;2023-08-06T05:34:34;14.90;99.90
13346;DHT22;6742;48.036;15.780;2023-08-06T05:37:03;14.90;99.90
13346;DHT22;6742;48.036;15.780;2023-08-06T05:39:30;14.90;99.90
13346;DHT22;6742;48.036;15.780;2023-08-06T05:41:57;14.90;99.90
13346;DHT22;6742;48.036;15.780;2023-08-06T05:44:24;14.90;99.90
13346;DHT22;6742;48.036;15.780;2023-08-06T05:46:51;14.90;99.90
13346;DHT22;6742;48.036;15.780;2023-08-06T05:49:19;14.80;99.90
13346;DHT22;6742;48.036;15.780;2023-08-06T05:51:46;14.90;99.90
13346;DHT22;6742;48.036;15.780;2023-08-06T05:54:15;14.80;99.90
13346;DHT22;6742;48.036;15.780;2023-08-06T05:56:42;14.80;99.90
13346;DHT22;6742;48.036;15.780;2023-08-06T05:59:09;14.80;99.90
13346;DHT22;6742;48.036;15.780;2023-08-06T06:01:36;14.70;99.90
13346;DHT22;6742;48.036;15.780;2023-08-06T06:04:03;14.70;99.90
13346;DHT22;6742;48.036;15.780;2023-08-06T06:06:30;14.70;99.90
13346;DHT22;6742;48.036;15.780;2023-08-06T06:08:57;14.80;99.90
13346;DHT22;6742;48.036;15.780;2023-08-06T06:11:25;14.80;99.90
13346;DHT22;6742;48.036;15.780;2023-08-06T06:13:52;14.80;99.90
13346;DHT22;6742;48.036;15.780;2023-08-06T06:16:19;14.70;99.90
13346;DHT22;6742;48.036;15.780;2023-08-06T06:18:46;14.80;99.90
13346;DHT22;6742;48.036;15.780;2023-08-06T06:21:13;14.80;99.90
13346;DHT22;6742;48.036;15.780;2023-08-06T06:23:40;14.80;99.90
13346;DHT22;6742;48.036;15.780;2023-08-06T06:26:07;14.70;99.90
13346;DHT22;6742;48.036;15.780;2023-08-06T06:28:36;14.80;99.90
13346;DHT22;6742;48.036;15.780;2023-08-06T06:31:03;14.70;99.90
13346;DHT22;6742;48.036;15.780;2023-08-06T06:33:30;14.60;99.90
13346;DHT22;6742;48.036;15.780;2023-08-06T06:35:57;14.60;99.90
13346;DHT22;6742;48.036;15.780;2023-08-06T06:38:24;14.60;99.90
13346;DHT22;6742;48.036;15.780;2023-08-06T06:40:54;14.60;99.90
13346;DHT22;6742;48.036;15.780;2023-08-06T06:43:21;14.60;99.90
13346;DHT22;6742;48.036;15.780;2023-08-06T06:45:55;14.60;99.90
13346;DHT22;6742;48.036;15.780;2023-08-06T06:48:22;14.50;99.90
13346;DHT22;6742;48.036;15.780;2023-08-06T06:50:49;14.50;99.90
13346;DHT22;6742;48.036;15.780;2023-08-06T06:53:16;14.50;99.90
13346;DHT22;6742;48.036;15.780;2023-08-06T06:55:43;14.50;99.90
13346;DHT22;6742;48.036;15.780;2023-08-06T06:58:10;14.50;99.90
13346;DHT22;6742;48.036;15.780;2023-08-06T07:00:37;14.50;99.90
13346;DHT22;6742;48.036;15.780;2023-08-06T07:03:05;14.60;99.90
13346;DHT22;6742;48.036;15.780;2023-08-06T07:05:32;14.60;99.90
13346;DHT22;6742;48.036;15.780;2023-08-06T07:07:59;14.50;99.90
13346;DHT22;6742;48.036;15.780;2023-08-06T07:10:26;14.50;99.90
13346;DHT22;6742;48.036;15.780;2023-08-06T07:12:53;14.50;99.90
13346;DHT22;6742;48.036;15.780;2023-08-06T07:15:20;14.40;99.90
13346;DHT22;6742;48.036;15.780;2023-08-06T07:17:47;14.40;99.90
13346;DHT22;6742;48.036;15.780;2023-08-06T07:20:16;14.50;99.90
13346;DHT22;6742;48.036;15.780;2023-08-06T07:22:43;14.50;99.90
13346;DHT22;6742;48.036;15.780;2023-08-06T07:25:10;14.60;99.90
13346;DHT22;6742;48.036;15.780;2023-08-06T07:27:37;14.70;99.90
13346;DHT22;6742;48.036;15.780;2023-08-06T07:30:05;14.80;99.90
13346;DHT22;6742;48.036;15.780;2023-08-06T07:32:32;14.80;99.90
13346;DHT22;6742;48.036;15.780;2023-08-06T07:34:59;14.80;99.90
13346;DHT22;6742;48.036;15.780;2023-08-06T07:37:29;14.80;99.90
13346;DHT22;6742;48.036;15.780;2023-08-06T07:39:56;14.90;99.90
13346;DHT22;6742;48.036;15.780;2023-08-06T07:42:23;14.80;99.90
13346;DHT22;6742;48.036;15.780;2023-08-06T07:44:52;14.80;99.90
13346;DHT22;6742;48.036;15.780;2023-08-06T07:47:19;14.70;99.90
13346;DHT22;6742;48.036;15.780;2023-08-06T07:49:46;14.80;99.90
13346;DHT22;6742;48.036;15.780;2023-08-06T07:52:13;14.80;99.90
13346;DHT22;6742;48.036;15.780;2023-08-06T07:54:42;14.90;99.90
13346;DHT22;6742;48.036;15.780;2023-08-06T07:57:12;14.80;99.90
13346;DHT22;6742;48.036;15.780;2023-08-06T07:59:40;14.80;99.90
13346;DHT22;6742;48.036;15.780;2023-08-06T08:02:07;14.80;99.90
13346;DHT22;6742;48.036;15.780;2023-08-06T08:04:34;14.80;99.90
13346;DHT22;6742;48.036;15.780;2023-08-06T08:07:01;14.80;99.90
13346;DHT22;6742;48.036;15.780;2023-08-06T08:09:28;14.80;99.90
13346;DHT22;6742;48.036;15.780;2023-08-06T08:11:56;14.80;99.90
13346;DHT22;6742;48.036;15.780;2023-08-06T08:14:24;14.80;99.90
13346;DHT22;6742;48.036;15.780;2023-08-06T08:16:51;14.90;99.90
13346;DHT22;6742;48.036;15.780;2023-08-06T08:19:20;14.90;99.90
13346;DHT22;6742;48.036;15.780;2023-08-06T08:21:47;15.00;99.90
13346;DHT22;6742;48.036;15.780;2023-08-06T08:24:14;15.10;99.90
13346;DHT22;6742;48.036;15.780;2023-08-06T08:26:45;15.20;99.90
13346;DHT22;6742;48.036;15.780;2023-08-06T08:29:13;15.20;99.90
13346;DHT22;6742;48.036;15.780;2023-08-06T08:31:40;15.20;99.90
13346;DHT22;6742;48.036;15.780;2023-08-06T08:34:07;15.20;99.90
13346;DHT22;6742;48.036;15.780;2023-08-06T08:36:37;15.20;99.90
13346;DHT22;6742;48.036;15.780;2023-08-06T08:39:04;15.20;99.90
13346;DHT22;6742;48.036;15.780;2023-08-06T08:41:31;15.20;99.90
13346;DHT22;6742;48.036;15.780;2023-08-06T08:43:59;15.20;99.90
13346;DHT22;6742;48.036;15.780;2023-08-06T08:46:29;15.10;99.90
13346;DHT22;6742;48.036;15.780;2023-08-06T08:48:59;15.10;99.90
13346;DHT22;6742;48.036;15.780;2023-08-06T08:51:27;15.10;99.90
13346;DHT22;6742;48.036;15.780;2023-08-06T08:53:56;15.00;99.90
13346;DHT22;6742;48.036;15.780;2023-08-06T08:56:23;15.00;99.90
13346;DHT22;6742;48.036;15.780;2023-08-06T08:58:50;15.10;99.90
13346;DHT22;6742;48.036;15.780;2023-08-06T09:01:19;15.10;99.90
13346;DHT22;6742;48.036;15.780;2023-08-06T09:03:48;15.10;99.90
13346;DHT22;6742;48.036;15.780;2023-08-06T09:06:17;15.10;99.90
13346;DHT22;6742;48.036;15.780;2023-08-06T09:08:51;15.20;99.90
13346;DHT22;6742;48.036;15.780;2023-08-06T09:11:21;15.20;99.90
13346;DHT22;6742;48.036;15.780;2023-08-06T09:13:48;15.20;99.90
13346;DHT22;6742;48.036;15.780;2023-08-06T09:16:15;15.20;99.90
13346;DHT22;6742;48.036;15.780;2023-08-06T09:18:42;15.20;99.90
13346;DHT22;6742;48.036;15.780;2023-08-06T09:21:15;15.20;99.90
13346;DHT22;6742;48.036;15.780;2023-08-06T09:23:42;15.20;99.90
13346;DHT22;6742;48.036;15.780;2023-08-06T09:26:11;15.20;99.90
13346;DHT22;6742;48.036;15.780;2023-08-06T09:28:39;15.10;99.90
13346;DHT22;6742;48.036;15.780;2023-08-06T09:31:09;15.10;99.90
13346;DHT22;6742;48.036;15.780;2023-08-06T09:33:37;15.20;99.90
13346;DHT22;6742;48.036;15.780;2023-08-06T09:36:08;15.30;99.90
13346;DHT22;6742;48.036;15.780;2023-08-06T09:38:39;15.40;99.90
13346;DHT22;6742;48.036;15.780;2023-08-06T09:41:07;15.40;99.90
13346;DHT22;6742;48.036;15.780;2023-08-06T09:43:41;15.50;99.90
13346;DHT22;6742;48.036;15.780;2023-08-06T09:46:12;15.50;99.90
13346;DHT22;6742;48.036;15.780;2023-08-06T09:48:40;15.40;99.90
13346;DHT22;6742;48.036;15.780;2023-08-06T09:51:08;15.40;99.90
13346;DHT22;6742;48.036;15.780;2023-08-06T09:53:36;15.40;99.90
13346;DHT22;6742;48.036;15.780;2023-08-06T09:56:05;15.40;99.90
13346;DHT22;6742;48.036;15.780;2023-08-06T09:58:32;15.40;99.90
13346;DHT22;6742;48.036;15.780;2023-08-06T10:01:00;15.50;99.90
13346;DHT22;6742;48.036;15.780;2023-08-06T10:03:29;15.60;99.90
13346;DHT22;6742;48.036;15.780;2023-08-06T10:05:58;15.60;99.90
13346;DHT22;6742;48.036;15.780;2023-08-06T10:08:27;15.70;99.90
13346;DHT22;6742;48.036;15.780;2023-08-06T10:10:54;15.70;99.90
13346;DHT22;6742;48.036;15.780;2023-08-06T10:13:24;15.80;99.90
13346;DHT22;6742;48.036;15.780;2023-08-06T10:15:52;15.80;99.90
13346;DHT22;6742;48.036;15.780;2023-08-06T10:18:20;15.80;99.90
13346;DHT22;6742;48.036;15.780;2023-08-06T10:20:48;15.90;99.90
13346;DHT22;6742;48.036;15.780;2023-08-06T10:23:15;16.00;99.90
13346;DHT22;6742;48.036;15.780;2023-08-06T10:25:43;16.00;99.90
13346;DHT22;6742;48.036;15.780;2023-08-06T10:28:21;16.10;99.90
13346;DHT22;6742;48.036;15.780;2023-08-06T10:30:49;16.10;99.90
13346;DHT22;6742;48.036;15.780;2023-08-06T10:33:19;16.10;99.90
13346;DHT22;6742;48.036;15.780;2023-08-06T10:35:47;16.00;99.90
13346;DHT22;6742;48.036;15.780;2023-08-06T10:38:17;16.00;99.90
13346;DHT22;6742;48.036;15.780;2023-08-06T10:40:49;15.90;99.90
13346;DHT22;6742;48.036;15.780;2023-08-06T10:43:25;15.80;99.90
13346;DHT22;6742;48.036;15.780;2023-08-06T10:45:55;15.80;99.90
13346;DHT22;6742;48.036;15.780;2023-08-06T10:48:29;15.90;99.90
13346;DHT22;6742;48.036;15.780;2023-08-06T10:50:57;15.90;99.90
13346;DHT22;6742;48.036;15.780;2023-08-06T10:53:24;15.90;99.90
13346;DHT22;6742;48.036;15.780;2023-08-06T10:55:51;15.90;99.90
13346;DHT22;6742;48.036;15.780;2023-08-06T10:58:18;15.90;99.90
13346;DHT22;6742;48.036;15.780;2023-08-06T11:00:45;15.90;99.90
13346;DHT22;6742;48.036;15.780;2023-08-06T11:03:14;15.90;99.90
13346;DHT22;6742;48.036;15.780;2023-08-06T11:05:48;15.90;99.90
13346;DHT22;6742;48.036;15.780;2023-08-06T11:08:23;15.90;99.90
13346;DHT22;6742;48.036;15.780;2023-08-06T11:10:50;15.80;99.90
13346;DHT22;6742;48.036;15.780;2023-08-06T11:13:17;15.80;99.90
13346;DHT22;6742;48.036;15.780;2023-08-06T11:15:45;15.90;99.90
13346;DHT22;6742;48.036;15.780;2023-08-06T11:18:13;15.90;99.90
13346;DHT22;6742;48.036;15.780;2023-08-06T11:20:40;15.90;99.90
13346;DHT22;6742;48.036;15.780;2023-08-06T11:23:10;16.00;99.90
13346;DHT22;6742;48.036;15.780;2023-08-06T11:25:37;15.90;99.90
13346;DHT22;6742;48.036;15.780;2023-08-06T11:28:11;16.00;99.90
13346;DHT22;6742;48.036;15.780;2023-08-06T11:30:38;16.10;99.90
13346;DHT22;6742;48.036;15.780;2023-08-06T11:33:07;16.10;99.90
13346;DHT22;6742;48.036;15.780;2023-08-06T11:35:36;16.30;99.90
13346;DHT22;6742;48.036;15.780;2023-08-06T11:38:04;16.30;99.90
13346;DHT22;6742;48.036;15.780;2023-08-06T11:40:31;16.40;99.90
13346;DHT22;6742;48.036;15.780;2023-08-06T11:42:59;16.40;99.90
13346;DHT22;6742;48.036;15.780;2023-08-06T11:45:28;16.50;99.90
13346;DHT22;6742;48.036;15.780;2023-08-06T11:47:59;16.50;99.90
13346;DHT22;6742;48.036;15.780;2023-08-06T11:50:26;16.60;99.90
13346;DHT22;6742;48.036;15.780;2023-08-06T11:52:57;16.60;99.90
13346;DHT22;6742;48.036;15.780;2023-08-06T11:55:25;16.70;99.90
13346;DHT22;6742;48.036;15.780;2023-08-06T11:57:51;16.80;99.90
13346;DHT22;6742;48.036;15.780;2023-08-06T12:00:18;16.90;99.90
13346;DHT22;6742;48.036;15.780;2023-08-06T12:02:48;16.90;99.90
13346;DHT22;6742;48.036;15.780;2023-08-06T12:05:18;17.00;99.90
13346;DHT22;6742;48.036;15.780;2023-08-06T12:07:47;16.90;99.90
13346;DHT22;6742;48.036;15.780;2023-08-06T12:10:16;17.00;99.90
13346;DHT22;6742;48.036;15.780;2023-08-06T12:12:45;17.00;99.90
13346;DHT22;6742;48.036;15.780;2023-08-06T12:15:12;17.10;99.90
13346;DHT22;6742;48.036;15.780;2023-08-06T12:17:39;17.20;99.90
13346;DHT22;6742;48.036;15.780;2023-08-06T12:20:07;17.30;99.90
13346;DHT22;6742;48.036;15.780;2023-08-06T12:22:34;17.40;99.90
13346;DHT22;6742;48.036;15.780;2023-08-06T12:25:04;17.50;99.90
13346;DHT22;6742;48.036;15.780;2023-08-06T12:27:35;17.60;99.90
13346;DHT22;6742;48.036;15.780;2023-08-06T12:30:02;17.60;99.90
13346;DHT22;6742;48.036;15.780;2023-08-06T12:32:30;17.60;99.90
13346;DHT22;6742;48.036;15.780;2023-08-06T12:34:57;17.60;99.90
13346;DHT22;6742;48.036;15.780;2023-08-06T12:37:24;17.60;99.90
13346;DHT22;6742;48.036;15.780;2023-08-06T12:39:52;17.60;99.90
13346;DHT22;6742;48.036;15.780;2023-08-06T12:42:19;17.60;99.90
13346;DHT22;6742;48.036;15.780;2023-08-06T12:44:48;17.60;99.90
13346;DHT22;6742;48.036;15.780;2023-08-06T12:47:16;17.80;99.90
13346;DHT22;6742;48.036;15.780;2023-08-06T12:49:43;18.00;99.90
13346;DHT22;6742;48.036;15.780;2023-08-06T12:52:10;18.10;99.90
13346;DHT22;6742;48.036;15.780;2023-08-06T12:54:38;18.20;99.90
13346;DHT22;6742;48.036;15.780;2023-08-06T12:57:05;18.20;99.90
13346;DHT22;6742;48.036;15.780;2023-08-06T12:59:32;18.20;99.90
13346;DHT22;6742;48.036;15.780;2023-08-06T13:02:03;18.10;99.90
13346;DHT22;6742;48.036;15.780;2023-08-06T13:04:30;18.10;99.90
13346;DHT22;6742;48.036;15.780;2023-08-06T13:06:59;17.90;99.90
13346;DHT22;6742;48.036;15.780;2023-08-06T13:09:26;17.70;99.90
13346;DHT22;6742;48.036;15.780;2023-08-06T13:11:53;17.60;99.90
13346;DHT22;6742;48.036;15.780;2023-08-06T13:14:20;17.50;99.90
13346;DHT22;6742;48.036;15.780;2023-08-06T13:16:47;17.50;99.90
13346;DHT22;6742;48.036;15.780;2023-08-06T13:19:18;17.60;99.90
13346;DHT22;6742;48.036;15.780;2023-08-06T13:22:03;17.60;99.90
13346;DHT22;6742;48.036;15.780;2023-08-06T13:24:32;17.60;99.90
13346;DHT22;6742;48.036;15.780;2023-08-06T13:27:00;17.50;99.90
13346;DHT22;6742;48.036;15.780;2023-08-06T13:29:27;17.40;99.90
13346;DHT22;6742;48.036;15.780;2023-08-06T13:31:54;17.20;99.90
13346;DHT22;6742;48.036;15.780;2023-08-06T13:34:22;17.00;99.90
13346;DHT22;6742;48.036;15.780;2023-08-06T13:36:49;16.70;99.90
13346;DHT22;6742;48.036;15.780;2023-08-06T13:39:16;16.30;99.90
13346;DHT22;6742;48.036;15.780;2023-08-06T13:41:44;16.20;99.90
13346;DHT22;6742;48.036;15.780;2023-08-06T13:44:11;16.20;99.90
13346;DHT22;6742;48.036;15.780;2023-08-06T13:46:40;16.30;99.90
13346;DHT22;6742;48.036;15.780;2023-08-06T13:49:07;16.30;99.90
13346;DHT22;6742;48.036;15.780;2023-08-06T13:51:35;16.30;99.90
13346;DHT22;6742;48.036;15.780;2023-08-06T13:54:04;16.30;99.90
13346;DHT22;6742;48.036;15.780;2023-08-06T13:56:32;16.10;99.90
13346;DHT22;6742;48.036;15.780;2023-08-06T13:58:59;16.20;99.90
13346;DHT22;6742;48.036;15.780;2023-08-06T14:01:26;16.30;99.90
13346;DHT22;6742;48.036;15.780;2023-08-06T14:03:53;16.50;99.90
13346;DHT22;6742;48.036;15.780;2023-08-06T14:06:20;16.50;99.90
13346;DHT22;6742;48.036;15.780;2023-08-06T14:08:48;16.60;99.90
13346;DHT22;6742;48.036;15.780;2023-08-06T14:11:15;16.50;99.90
13346;DHT22;6742;48.036;15.780;2023-08-06T14:13:42;16.50;99.90
13346;DHT22;6742;48.036;15.780;2023-08-06T14:16:09;16.50;99.90
13346;DHT22;6742;48.036;15.780;2023-08-06T14:18:36;16.60;99.90
13346;DHT22;6742;48.036;15.780;2023-08-06T14:21:04;16.50;99.90
13346;DHT22;6742;48.036;15.780;2023-08-06T14:23:32;16.40;99.90
13346;DHT22;6742;48.036;15.780;2023-08-06T14:26:01;16.50;99.90
13346;DHT22;6742;48.036;15.780;2023-08-06T14:28:27;16.50;99.90
13346;DHT22;6742;48.036;15.780;2023-08-06T14:30:54;16.30;99.90
13346;DHT22;6742;48.036;15.780;2023-08-06T14:33:22;16.40;99.90
13346;DHT22;6742;48.036;15.780;2023-08-06T14:35:51;16.30;99.90
13346;DHT22;6742;48.036;15.780;2023-08-06T14:38:18;16.30;99.90
13346;DHT22;6742;48.036;15.780;2023-08-06T14:40:45;16.50;99.90
13346;DHT22;6742;48.036;15.780;2023-08-06T14:43:13;16.50;99.90
13346;DHT22;6742;48.036;15.780;2023-08-06T14:45:40;16.50;99.90
13346;DHT22;6742;48.036;15.780;2023-08-06T14:48:07;16.60;99.90
13346;DHT22;6742;48.036;15.780;2023-08-06T14:50:34;16.60;99.90
13346;DHT22;6742;48.036;15.780;2023-08-06T14:53:01;16.60;99.90
13346;DHT22;6742;48.036;15.780;2023-08-06T14:55:29;16.60;99.90
13346;DHT22;6742;48.036;15.780;2023-08-06T14:57:56;16.60;99.90
13346;DHT22;6742;48.036;15.780;2023-08-06T15:00:25;16.60;99.90
13346;DHT22;6742;48.036;15.780;2023-08-06T15:02:52;16.70;99.90
13346;DHT22;6742;48.036;15.780;2023-08-06T15:05:19;16.60;99.90
13346;DHT22;6742;48.036;15.780;2023-08-06T15:07:46;16.60;99.90
13346;DHT22;6742;48.036;15.780;2023-08-06T15:10:14;16.60;99.90
13346;DHT22;6742;48.036;15.780;2023-08-06T15:12:41;16.50;99.90
13346;DHT22;6742;48.036;15.780;2023-08-06T15:15:09;16.50;99.90
13346;DHT22;6742;48.036;15.780;2023-08-06T15:17:37;16.50;99.90
13346;DHT22;6742;48.036;15.780;2023-08-06T15:20:05;16.50;99.90
13346;DHT22;6742;48.036;15.780;2023-08-06T15:22:32;16.50;99.90
13346;DHT22;6742;48.036;15.780;2023-08-06T15:25:00;16.50;99.90
13346;DHT22;6742;48.036;15.780;2023-08-06T15:27:27;16.50;99.90
13346;DHT22;6742;48.036;15.780;2023-08-06T15:29:54;16.50;99.90
13346;DHT22;6742;48.036;15.780;2023-08-06T15:32:21;16.40;99.90
13346;DHT22;6742;48.036;15.780;2023-08-06T15:34:50;16.30;99.90